Time;durP1;ratioP1;P1;durP2;ratioP2;P2;SDS_P1;SDS_P2;PMS_P1;PMS_P2;Temp;Humidity;BMP_temperature;BMP_pressure;BME280_temperature;BME280_humidity;BME280_pressure;Samples;Min_cycle;Max_cycle;Signal;HPM_P1;HPM_P2
2023/05/14 00:02:04;;;;;;;26.70;21.75;;;;;;;;;;4407382;32;20026;-66
2023/05/14 00:04:29;;;;;;;30.30;20.17;;;;;;;;;;4406567;32;20027;-66
2023/05/14 00:06:55;;;;;;;26.42;20.37;;;;;;;;;;4407617;32;20070;-66
2023/05/14 00:09:20;;;;;;;28.95;20.45;;;;;;;;;;4407614;32;20093;-67
2023/05/14 00:11:45;;;;;;;31.95;21.35;;;;;;;;;;4408787;32;20095;-66
2023/05/14 00:14:10;;;;;;;23.70;20.17;;;;;;;;;;4421119;32;20079;-66
2023/05/14 00:16:36;;;;;;;27.55;21.12;;;;;;;;;;4422659;32;20065;-66
2023/05/14 00:19:01;;;;;;;31.87;22.25;;;;;;;;;;4412791;32;20064;-66
2023/05/14 00:21:26;;;;;;;31.92;21.08;;;;;;;;;;4405713;32;20030;-66
2023/05/14 00:23:51;;;;;;;23.95;19.77;;;;;;;;;;4419667;32;20098;-66
2023/05/14 00:26:16;;;;;;;30.80;18.65;;;;;;;;;;4422650;32;20050;-67
2023/05/14 00:28:41;;;;;;;26.27;20.55;;;;;;;;;;4422399;32;20053;-65
2023/05/14 00:31:07;;;;;;;29.30;19.95;;;;;;;;;;4422486;32;20070;-66
2023/05/14 00:33:32;;;;;;;25.20;19.33;;;;;;;;;;4422227;32;20075;-66
2023/05/14 00:35:57;;;;;;;30.73;20.42;;;;;;;;;;4422141;32;20026;-66
2023/05/14 00:38:23;;;;;;;;;;;;;;;;;;4421399;32;20407;-67
2023/05/14 00:40:50;;;;;;;22.52;17.40;;;;;;;;;;4421459;32;19945;-66
2023/05/14 00:43:19;;;;;;;22.73;17.70;;;;;;;;;;4422410;32;20544;-66
2023/05/14 00:45:44;;;;;;;27.13;19.50;;;;;;;;;;4420793;32;20079;-66
2023/05/14 00:48:10;;;;;;;29.10;19.23;;;;;;;;;;4420233;32;20034;-66
2023/05/14 00:50:35;;;;;;;25.77;18.42;;;;;;;;;;4421417;32;20077;-66
2023/05/14 00:53:01;;;;;;;26.33;17.55;;;;;;;;;;4421777;32;20469;-66
2023/05/14 00:55:27;;;;;;;25.17;19.25;;;;;;;;;;4419376;32;20030;-66
2023/05/14 00:57:53;;;;;;;26.92;18.60;;;;;;;;;;4422049;32;20033;-66
2023/05/14 01:00:18;;;;;;;25.80;19.80;;;;;;;;;;4421976;32;20124;-65
2023/05/14 01:02:43;;;;;;;;;;;;;;;;;;4420578;32;20075;-66
2023/05/14 01:05:09;;;;;;;26.55;19.60;;;;;;;;;;4413936;32;20378;-66
2023/05/14 01:07:38;;;;;;;28.58;20.48;;;;;;;;;;4407058;32;20103;-66
2023/05/14 01:10:33;;;;;;;26.25;19.80;;;;;;;;;;4405392;32;20100;-66
2023/05/14 01:13:03;;;;;;;27.35;19.15;;;;;;;;;;4401652;32;20050;-66
2023/05/14 01:15:29;;;;;;;32.40;21.58;;;;;;;;;;4421888;32;20077;-65
2023/05/14 01:17:58;;;;;;;30.20;20.70;;;;;;;;;;4422194;32;20029;-66
2023/05/14 01:20:25;;;;;;;29.17;20.55;;;;;;;;;;4420446;32;20034;-66
2023/05/14 01:22:50;;;;;;;32.78;20.27;;;;;;;;;;4422036;32;20030;-67
2023/05/14 01:25:15;;;;;;;33.88;20.20;;;;;;;;;;4422306;32;20465;-66
2023/05/14 01:27:45;;;;;;;24.92;19.90;;;;;;;;;;4420128;32;20091;-66
2023/05/14 01:30:10;;;;;;;29.27;21.45;;;;;;;;;;4421436;32;20058;-66
2023/05/14 01:32:36;;;;;;;30.92;21.27;;;;;;;;;;4420584;32;20177;-66
2023/05/14 01:35:02;;;;;;;31.05;22.85;;;;;;;;;;4422031;32;20082;-66
2023/05/14 01:37:28;;;;;;;24.58;19.70;;;;;;;;;;4421892;32;20469;-66
2023/05/14 01:39:54;;;;;;;34.15;22.00;;;;;;;;;;4421776;32;20030;-66
2023/05/14 01:42:20;;;;;;;30.67;22.83;;;;;;;;;;4413579;32;20097;-65
2023/05/14 01:44:46;;;;;;;31.70;22.08;;;;;;;;;;4407866;32;20105;-67
2023/05/14 01:47:11;;;;;;;35.47;23.05;;;;;;;;;;4420457;32;20128;-64
2023/05/14 01:49:36;;;;;;;30.20;22.35;;;;;;;;;;4421116;32;20104;-66
2023/05/14 01:52:01;;;;;;;;;;;;;;;;;;4410091;32;20153;-66
2023/05/14 01:54:27;;;;;;;29.55;22.17;;;;;;;;;;4406526;32;19956;-65
2023/05/14 01:56:52;;;;;;;30.52;22.33;;;;;;;;;;4417907;32;20055;-66
2023/05/14 01:59:17;;;;;;;;;;;;;;;;;;4418371;32;20112;-66
2023/05/14 02:01:42;;;;;;;30.45;21.92;;;;;;;;;;4418244;32;19941;-66
2023/05/14 02:04:07;;;;;;;29.10;21.07;;;;;;;;;;4414063;32;20052;-66
2023/05/14 02:06:32;;;;;;;;;;;;;;;;;;4412090;32;20129;-68
2023/05/14 02:08:57;;;;;;;30.50;21.98;;;;;;;;;;4407226;32;20044;-68
2023/05/14 02:11:23;;;;;;;29.20;21.73;;;;;;;;;;4407055;32;20041;-65
2023/05/14 02:13:48;;;;;;;31.85;23.35;;;;;;;;;;4406811;32;20420;-65
2023/05/14 02:16:13;;;;;;;29.30;22.98;;;;;;;;;;4406863;32;20026;-66
2023/05/14 02:18:38;;;;;;;37.10;22.70;;;;;;;;;;4420422;32;20034;-66
2023/05/14 02:21:03;;;;;;;;;;;;;;;;;;4413081;32;20439;-67
2023/05/14 02:23:28;;;;;;;32.05;20.83;;;;;;;;;;4412511;32;19955;-66
2023/05/14 02:25:54;;;;;;;27.80;22.35;;;;;;;;;;4422361;32;20038;-65
2023/05/14 02:28:19;;;;;;;26.67;21.48;;;;;;;;;;4421057;32;20031;-67
2023/05/14 02:30:44;;;;;;;;;;;;;;;;;;4421106;32;20413;-67
2023/05/14 02:33:09;;;;;;;35.42;22.35;;;;;;;;;;4424190;32;20364;-66
2023/05/14 02:35:35;;;;;;;29.90;22.17;;;;;;;;;;4422525;32;20060;-66
2023/05/14 02:38:00;;;;;;;;;;;;;;;;;;4423297;32;20374;-66
2023/05/14 02:40:25;;;;;;;37.60;26.05;;;;;;;;;;4423487;32;19945;-66
2023/05/14 02:42:50;;;;;;;36.45;24.45;;;;;;;;;;4423414;32;20459;-67
2023/05/14 02:45:15;;;;;;;;;;;;;;;;;;4422951;32;20505;-66
2023/05/14 02:47:41;;;;;;;40.20;26.00;;;;;;;;;;4424329;32;19951;-66
2023/05/14 02:50:06;;;;;;;34.08;23.80;;;;;;;;;;4422615;32;20109;-66
2023/05/14 02:52:31;;;;;;;33.65;24.90;;;;;;;;;;4424601;32;20067;-66
2023/05/14 02:54:56;;;;;;;;;;;;;;;;;;4423175;32;20053;-65
2023/05/14 02:57:22;;;;;;;36.92;25.25;;;;;;;;;;4422705;32;20330;-66
2023/05/14 02:59:47;;;;;;;35.03;25.55;;;;;;;;;;4424489;32;20086;-68
2023/05/14 03:02:12;;;;;;;39.65;26.85;;;;;;;;;;4423520;32;20026;-66
2023/05/14 03:04:37;;;;;;;35.72;24.15;;;;;;;;;;4422135;32;20375;-66
2023/05/14 03:07:02;;;;;;;;;;;;;;;;;;4423693;32;20022;-66
2023/05/14 03:09:27;;;;;;;38.65;26.17;;;;;;;;;;4422525;32;19941;-66
2023/05/14 03:11:53;;;;;;;43.13;27.87;;;;;;;;;;4422400;32;20347;-65
2023/05/14 03:14:19;;;;;;;47.65;29.90;;;;;;;;;;4422650;32;20180;-66
2023/05/14 03:16:44;;;;;;;40.38;27.77;;;;;;;;;;4423430;32;20056;-66
2023/05/14 03:19:10;;;;;;;37.55;26.30;;;;;;;;;;4423046;32;20038;-66
2023/05/14 03:21:35;;;;;;;;;;;;;;;;;;4422177;32;20196;-66
2023/05/14 03:24:00;;;;;;;40.08;28.10;;;;;;;;;;4420246;32;19992;-66
2023/05/14 03:26:25;;;;;;;37.72;26.67;;;;;;;;;;4421412;32;20110;-66
2023/05/14 03:28:50;;;;;;;;;;;;;;;;;;4424226;32;20374;-65
2023/05/14 03:31:16;;;;;;;44.47;27.77;;;;;;;;;;4420186;32;19990;-66
2023/05/14 03:33:41;;;;;;;;;;;;;;;;;;4423885;32;20053;-67
2023/05/14 03:36:06;;;;;;;43.47;28.65;;;;;;;;;;4421850;32;19983;-66
2023/05/14 03:38:31;;;;;;;41.85;29.20;;;;;;;;;;4414799;32;20037;-66
2023/05/14 03:40:56;;;;;;;;;;;;;;;;;;4422115;32;20415;-67
2023/05/14 03:43:21;;;;;;;41.60;29.42;;;;;;;;;;4422178;32;19941;-65
2023/05/14 03:45:51;;;;;;;45.03;28.80;;;;;;;;;;4421973;32;20026;-66
2023/05/14 03:48:16;;;;;;;47.30;31.10;;;;;;;;;;4423165;32;20097;-66
2023/05/14 03:50:41;;;;;;;43.13;29.52;;;;;;;;;;4422110;32;20046;-65
2023/05/14 03:53:06;;;;;;;41.00;28.48;;;;;;;;;;4421848;32;20119;-66
2023/05/14 03:55:31;;;;;;;34.47;27.80;;;;;;;;;;4422398;32;20156;-65
2023/05/14 03:57:56;;;;;;;;;;;;;;;;;;4423449;32;20164;-65
2023/05/14 04:00:22;;;;;;;39.92;27.35;;;;;;;;;;4412038;32;19954;-65
2023/05/14 04:02:47;;;;;;;36.60;25.85;;;;;;;;;;4418936;32;20029;-65
2023/05/14 04:05:12;;;;;;;40.47;27.33;;;;;;;;;;4421153;32;20030;-65
2023/05/14 04:07:37;;;;;;;41.35;29.08;;;;;;;;;;4421399;32;20392;-66
2023/05/14 04:10:02;;;;;;;;;;;;;;;;;;4420030;32;20155;-65
2023/05/14 04:12:27;;;;;;;37.63;26.97;;;;;;;;;;4422368;32;20341;-66
2023/05/14 04:14:53;;;;;;;;;;;;;;;;;;4407878;32;20175;-66
2023/05/14 04:17:18;;;;;;;43.67;28.62;;;;;;;;;;4407397;32;19989;-65
2023/05/14 04:19:43;;;;;;;36.63;27.13;;;;;;;;;;4409907;32;20029;-66
2023/05/14 04:22:08;;;;;;;38.80;28.77;;;;;;;;;;4421690;32;20094;-67
2023/05/14 04:24:33;;;;;;;35.05;27.35;;;;;;;;;;4409463;32;20061;-66
2023/05/14 04:26:58;;;;;;;36.43;26.50;;;;;;;;;;4412452;32;20113;-65
2023/05/14 04:29:24;;;;;;;;;;;;;;;;;;4421092;32;20195;-66
2023/05/14 04:31:49;;;;;;;38.63;26.12;;;;;;;;;;4421605;32;19933;-66
2023/05/14 04:34:14;;;;;;;35.47;26.85;;;;;;;;;;4418632;32;20034;-66
2023/05/14 04:36:40;;;;;;;;;;;;;;;;;;4421407;32;20034;-66
2023/05/14 04:39:05;;;;;;;36.28;24.67;;;;;;;;;;4420614;32;19986;-66
2023/05/14 04:41:30;;;;;;;;;;;;;;;;;;4422937;32;20033;-66
2023/05/14 04:43:55;;;;;;;38.85;25.80;;;;;;;;;;4422558;32;19989;-66
2023/05/14 04:46:21;;;;;;;39.03;25.77;;;;;;;;;;4422443;32;20056;-66
2023/05/14 04:48:47;;;;;;;31.15;22.60;;;;;;;;;;4422523;32;20096;-66
2023/05/14 04:51:12;;;;;;;34.42;23.48;;;;;;;;;;4419551;32;20126;-66
2023/05/14 04:53:37;;;;;;;35.15;23.95;;;;;;;;;;4421992;32;20104;-66
2023/05/14 04:56:02;;;;;;;34.15;24.00;;;;;;;;;;4421965;32;20071;-65
2023/05/14 04:58:30;;;;;;;;;;;;;;;;;;4421581;32;20030;-66
2023/05/14 05:00:55;;;;;;;37.70;23.98;;;;;;;;;;4420140;32;20319;-67
2023/05/14 05:03:20;;;;;;;;;;;;;;;;;;4422491;32;20037;-67
2023/05/14 05:05:45;;;;;;;42.85;25.37;;;;;;;;;;4413805;32;19937;-66
2023/05/14 05:08:10;;;;;;;39.30;24.73;;;;;;;;;;4405894;32;20105;-66
2023/05/14 05:10:36;;;;;;;;;;;;;;;;;;4406670;32;20517;-66
2023/05/14 05:13:01;;;;;;;35.30;25.20;;;;;;;;;;4420683;32;19938;-66
2023/05/14 05:15:26;;;;;;;39.88;25.98;;;;;;;;;;4421378;32;20061;-67
2023/05/14 05:17:51;;;;;;;;;;;;;;;;;;4420637;32;20100;-67
2023/05/14 05:20:16;;;;;;;35.53;25.77;;;;;;;;;;4419602;32;19972;-66
2023/05/14 05:22:41;;;;;;;38.47;24.87;;;;;;;;;;4421506;32;20054;-66
2023/05/14 05:25:07;;;;;;;31.12;24.20;;;;;;;;;;4421702;32;20030;-66
2023/05/14 05:27:33;;;;;;;38.90;26.67;;;;;;;;;;4410599;32;20074;-67
2023/05/14 05:30:00;;;;;;;31.85;25.35;;;;;;;;;;4406892;32;20478;-66
2023/05/14 05:32:25;;;;;;;32.45;25.55;;;;;;;;;;4404642;32;20056;-66
2023/05/14 05:34:50;;;;;;;35.70;27.23;;;;;;;;;;4407601;32;20066;-67
2023/05/14 05:37:15;;;;;;;;;;;;;;;;;;4421434;32;20096;-66
2023/05/14 05:39:41;;;;;;;34.85;26.70;;;;;;;;;;4422137;32;19971;-67
2023/05/14 05:42:06;;;;;;;40.20;27.95;;;;;;;;;;4420184;32;20061;-66
2023/05/14 05:44:31;;;;;;;40.10;28.65;;;;;;;;;;4421484;32;20460;-66
2023/05/14 05:46:57;;;;;;;36.08;27.60;;;;;;;;;;4420158;32;20026;-67
2023/05/14 05:49:22;;;;;;;38.15;29.37;;;;;;;;;;4419939;32;20037;-66
2023/05/14 05:51:47;;;;;;;35.22;28.25;;;;;;;;;;4419563;32;20072;-67
2023/05/14 05:54:12;;;;;;;35.53;27.75;;;;;;;;;;4417712;32;20053;-67
2023/05/14 05:56:37;;;;;;;38.85;28.90;;;;;;;;;;4420518;32;20071;-66
2023/05/14 05:59:03;;;;;;;41.75;28.65;;;;;;;;;;4419695;32;20033;-66
2023/05/14 06:01:28;;;;;;;41.17;28.77;;;;;;;;;;4420440;32;20403;-67
2023/05/14 06:03:53;;;;;;;36.75;29.65;;;;;;;;;;4419586;32;20041;-66
2023/05/14 06:06:18;;;;;;;39.97;29.73;;;;;;;;;;4416621;32;20094;-66
2023/05/14 06:08:44;;;;;;;43.08;29.33;;;;;;;;;;4420051;32;20084;-66
2023/05/14 06:11:09;;;;;;;43.67;31.10;;;;;;;;;;4420963;32;20034;-66
2023/05/14 06:13:34;;;;;;;42.67;31.30;;;;;;;;;;4419064;32;20093;-66
2023/05/14 06:15:59;;;;;;;44.38;32.80;;;;;;;;;;4419926;32;20080;-65
2023/05/14 06:18:24;;;;;;;50.78;33.83;;;;;;;;;;4420540;32;20100;-66
2023/05/14 06:20:49;;;;;;;43.80;30.70;;;;;;;;;;4421008;32;20057;-66
2023/05/14 06:23:15;;;;;;;46.40;33.78;;;;;;;;;;4420059;32;20022;-66
2023/05/14 06:25:40;;;;;;;46.28;34.55;;;;;;;;;;4421751;32;20442;-66
2023/05/14 06:28:05;;;;;;;46.70;32.97;;;;;;;;;;4418717;32;20066;-67
2023/05/14 06:30:30;;;;;;;42.58;31.62;;;;;;;;;;4421417;32;20125;-66
2023/05/14 06:32:55;;;;;;;40.00;31.45;;;;;;;;;;4420702;32;20122;-67
2023/05/14 06:35:21;;;;;;;42.35;31.23;;;;;;;;;;4419810;32;20056;-67
2023/05/14 06:37:46;;;;;;;42.22;31.95;;;;;;;;;;4414253;32;20097;-67
2023/05/14 06:40:11;;;;;;;44.65;33.10;;;;;;;;;;4420195;32;20034;-67
2023/05/14 06:42:37;;;;;;;41.00;31.98;;;;;;;;;;4420260;32;20030;-67
2023/05/14 06:45:02;;;;;;;47.05;32.67;;;;;;;;;;4420482;32;20064;-65
2023/05/14 06:47:27;;;;;;;47.05;31.48;;;;;;;;;;4419010;32;20021;-66
2023/05/14 06:49:52;;;;;;;45.95;31.00;;;;;;;;;;4420645;32;20072;-65
2023/05/14 06:52:18;;;;;;;42.08;31.85;;;;;;;;;;4415219;32;20081;-66
2023/05/14 06:54:43;;;;;;;40.35;31.12;;;;;;;;;;4403372;32;20038;-66
2023/05/14 06:57:08;;;;;;;41.65;29.92;;;;;;;;;;4409714;32;20076;-67
2023/05/14 06:59:33;;;;;;;41.80;31.80;;;;;;;;;;4412933;32;20030;-67
2023/05/14 07:01:58;;;;;;;44.08;34.00;;;;;;;;;;4422021;32;20530;-66
2023/05/14 07:04:24;;;;;;;44.40;33.00;;;;;;;;;;4420539;32;20029;-66
2023/05/14 07:06:49;;;;;;;38.63;30.27;;;;;;;;;;4422519;32;20053;-66
2023/05/14 07:09:14;;;;;;;41.17;31.17;;;;;;;;;;4423014;32;20080;-67
2023/05/14 07:11:40;;;;;;;36.58;28.48;;;;;;;;;;4421674;32;20463;-65
2023/05/14 07:14:05;;;;;;;33.70;27.27;;;;;;;;;;4422665;32;20030;-67
2023/05/14 07:16:30;;;;;;;34.15;27.17;;;;;;;;;;4422799;32;20025;-66
2023/05/14 07:18:56;;;;;;;41.13;28.77;;;;;;;;;;4421543;32;20088;-66
2023/05/14 07:21:21;;;;;;;35.33;26.67;;;;;;;;;;4421137;32;20034;-66
2023/05/14 07:23:46;;;;;;;31.02;25.08;;;;;;;;;;4421641;32;20168;-66
2023/05/14 07:26:11;;;;;;;35.10;25.75;;;;;;;;;;4420111;32;20068;-66
2023/05/14 07:28:36;;;;;;;34.00;26.90;;;;;;;;;;4421321;32;20057;-66
2023/05/14 07:31:03;;;;;;;31.73;26.42;;;;;;;;;;4422899;32;20157;-67
2023/05/14 07:33:29;;;;;;;46.80;34.25;;;;;;;;;;4420957;32;20033;-66
2023/05/14 07:35:54;;;;;;;36.08;27.52;;;;;;;;;;4421034;32;20386;-65
2023/05/14 07:38:19;;;;;;;31.20;26.20;;;;;;;;;;4421349;32;20434;-66
2023/05/14 07:40:44;;;;;;;33.78;24.98;;;;;;;;;;4420905;32;20422;-66
2023/05/14 07:43:10;;;;;;;29.42;24.65;;;;;;;;;;4421356;32;20079;-66
2023/05/14 07:45:35;;;;;;;34.00;24.80;;;;;;;;;;4420945;32;20037;-66
2023/05/14 07:48:00;;;;;;;28.10;23.30;;;;;;;;;;4422766;32;20094;-66
2023/05/14 07:50:26;;;;;;;24.33;21.60;;;;;;;;;;4420614;32;20065;-66
2023/05/14 07:52:51;;;;;;;30.30;24.23;;;;;;;;;;4422405;32;20042;-67
2023/05/14 07:55:16;;;;;;;29.00;23.40;;;;;;;;;;4422038;32;20157;-66
2023/05/14 07:57:41;;;;;;;34.22;23.58;;;;;;;;;;4420846;32;20355;-67
2023/05/14 08:00:07;;;;;;;28.02;21.73;;;;;;;;;;4420386;32;20042;-67
2023/05/14 08:02:32;;;;;;;28.10;20.95;;;;;;;;;;4421184;32;20034;-66
2023/05/14 08:04:57;;;;;;;29.95;20.92;;;;;;;;;;4420792;32;20509;-67
2023/05/14 08:07:22;;;;;;;24.40;20.37;;;;;;;;;;4421781;32;20064;-67
2023/05/14 08:09:47;;;;;;;32.58;21.30;;;;;;;;;;4411983;32;20412;-67
2023/05/14 08:12:13;;;;;;;30.62;20.85;;;;;;;;;;4418546;32;20030;-66
2023/05/14 08:14:38;;;;;;;27.80;21.48;;;;;;;;;;4420842;32;20026;-67
2023/05/14 08:17:03;;;;;;;33.28;21.42;;;;;;;;;;4420967;32;20419;-67
2023/05/14 08:19:28;;;;;;;26.42;20.25;;;;;;;;;;4420184;32;20155;-66
2023/05/14 08:21:53;;;;;;;27.50;20.03;;;;;;;;;;4421852;32;20030;-68
2023/05/14 08:24:19;;;;;;;25.85;19.37;;;;;;;;;;4422871;32;20133;-67
2023/05/14 08:26:44;;;;;;;24.45;18.85;;;;;;;;;;4422240;32;20049;-67
2023/05/14 08:29:09;;;;;;;22.73;18.27;;;;;;;;;;4420171;32;20029;-67
2023/05/14 08:31:34;;;;;;;24.48;18.33;;;;;;;;;;4422452;32;20404;-66
2023/05/14 08:33:59;;;;;;;20.85;18.42;;;;;;;;;;4422855;32;20038;-66
2023/05/14 08:36:24;;;;;;;23.05;18.62;;;;;;;;;;4422051;32;20038;-66
2023/05/14 08:38:50;;;;;;;26.98;16.83;;;;;;;;;;4421819;32;20397;-66
2023/05/14 08:41:15;;;;;;;23.65;17.95;;;;;;;;;;4421609;32;20030;-67
2023/05/14 08:43:49;;;;;;;22.95;16.37;;;;;;;;;;4421584;32;20064;-67
2023/05/14 08:46:16;;;;;;;25.58;19.77;;;;;;;;;;4420770;32;20056;-67
2023/05/14 08:48:41;;;;;;;21.30;17.20;;;;;;;;;;4421976;32;20034;-66
2023/05/14 08:51:07;;;;;;;22.37;15.73;;;;;;;;;;4420812;32;20089;-65
2023/05/14 08:53:32;;;;;;;28.62;16.23;;;;;;;;;;4422175;32;20094;-66
2023/05/14 08:55:59;;;;;;;21.03;15.80;;;;;;;;;;4421769;32;20056;-66
2023/05/14 08:58:26;;;;;;;21.15;16.10;;;;;;;;;;4396345;32;20160;-66
2023/05/14 09:00:52;;;;;;;21.30;17.50;;;;;;;;;;4418868;32;20091;-67
2023/05/14 09:03:18;;;;;;;21.02;15.98;;;;;;;;;;4420667;32;20041;-68
2023/05/14 09:05:43;;;;;;;28.65;17.15;;;;;;;;;;4418583;32;20057;-68
2023/05/14 09:08:08;;;;;;;26.48;16.85;;;;;;;;;;4419599;32;20079;-67
2023/05/14 09:10:33;;;;;;;19.80;16.42;;;;;;;;;;4418322;32;20068;-67
2023/05/14 09:12:58;;;;;;;20.02;15.73;;;;;;;;;;4421584;32;20060;-68
2023/05/14 09:15:26;;;;;;;17.90;15.75;;;;;;;;;;4420308;32;20358;-67
2023/05/14 09:17:52;;;;;;;19.73;15.13;;;;;;;;;;4421158;32;20037;-67
2023/05/14 09:20:17;;;;;;;22.20;15.98;;;;;;;;;;4415643;32;20056;-68
2023/05/14 09:22:42;;;;;;;21.33;16.45;;;;;;;;;;4409694;32;20064;-67
2023/05/14 09:25:09;;;;;;;23.02;15.20;;;;;;;;;;4412843;32;20064;-67
2023/05/14 09:27:35;;;;;;;22.75;16.50;;;;;;;;;;4419648;32;20101;-67
2023/05/14 09:30:07;;;;;;;19.65;16.73;;;;;;;;;;4421723;32;20079;-67
2023/05/14 09:32:40;;;;;;;21.87;15.50;;;;;;;;;;4421529;32;20037;-69
2023/05/14 09:35:13;;;;;;;20.02;14.55;;;;;;;;;;4420910;32;20396;-68
2023/05/14 09:37:40;;;;;;;21.33;16.05;;;;;;;;;;4416320;32;20380;-66
2023/05/14 09:40:07;;;;;;;23.92;15.60;;;;;;;;;;4418261;32;20080;-67
2023/05/14 09:42:33;;;;;;;22.37;16.15;;;;;;;;;;4415283;32;20093;-67
2023/05/14 09:44:58;;;;;;;25.08;16.77;;;;;;;;;;4414695;32;20423;-67
2023/05/14 09:47:23;;;;;;;25.17;16.87;;;;;;;;;;4420541;32;20226;-67
2023/05/14 09:49:49;;;;;;;21.65;16.23;;;;;;;;;;4420713;32;20372;-66
2023/05/14 09:52:17;;;;;;;21.75;15.20;;;;;;;;;;4419602;32;20501;-66
2023/05/14 09:54:42;;;;;;;18.67;16.02;;;;;;;;;;4418873;32;20086;-66
2023/05/14 09:57:07;;;;;;;19.87;16.35;;;;;;;;;;4416274;32;20058;-67
2023/05/14 09:59:33;;;;;;;20.80;15.05;;;;;;;;;;4419890;32;20030;-67
2023/05/14 10:01:58;;;;;;;20.75;15.05;;;;;;;;;;4409222;32;20050;-65
2023/05/14 10:04:23;;;;;;;24.77;14.57;;;;;;;;;;4411473;32;20037;-68
2023/05/14 10:06:50;;;;;;;20.20;15.13;;;;;;;;;;4411293;32;20038;-67
2023/05/14 10:09:15;;;;;;;26.05;15.85;;;;;;;;;;4404288;32;20031;-67
2023/05/14 10:11:42;;;;;;;18.73;13.75;;;;;;;;;;4417087;32;20069;-67
2023/05/14 10:14:17;;;;;;;23.17;13.95;;;;;;;;;;4421079;32;20500;-67
2023/05/14 10:16:52;;;;;;;21.12;14.60;;;;;;;;;;4415876;32;20059;-67
2023/05/14 10:19:19;;;;;;;19.08;13.10;;;;;;;;;;4421212;32;20141;-67
2023/05/14 10:21:47;;;;;;;23.67;13.38;;;;;;;;;;4420204;32;20083;-67
2023/05/14 10:24:13;;;;;;;17.83;11.95;;;;;;;;;;4417365;32;20091;-66
2023/05/14 10:26:39;;;;;;;20.83;13.18;;;;;;;;;;4419168;32;20049;-66
2023/05/14 10:29:05;;;;;;;19.62;12.65;;;;;;;;;;4420467;32;20026;-67
2023/05/14 10:31:50;;;;;;;17.37;12.88;;;;;;;;;;4420887;32;20056;-67
2023/05/14 10:34:42;;;;;;;21.77;11.60;;;;;;;;;;4420608;32;20412;-68
2023/05/14 10:37:15;;;;;;;19.70;11.60;;;;;;;;;;4418068;32;20029;-67
2023/05/14 10:40:00;;;;;;;20.17;13.23;;;;;;;;;;4424458;32;20034;-68
2023/05/14 10:42:27;;;;;;;18.83;11.47;;;;;;;;;;4422829;32;20056;-67
2023/05/14 10:44:54;;;;;;;21.58;11.40;;;;;;;;;;4424172;32;20075;-68
2023/05/14 10:47:20;;;;;;;18.87;11.40;;;;;;;;;;4423058;32;20423;-67
2023/05/14 10:49:48;;;;;;;21.80;11.38;;;;;;;;;;4421572;32;20091;-67
2023/05/14 10:52:14;;;;;;;17.45;10.77;;;;;;;;;;4407930;32;20108;-68
2023/05/14 10:54:44;;;;;;;16.17;9.30;;;;;;;;;;4407127;32;20030;-67
2023/05/14 10:57:10;;;;;;;14.93;9.88;;;;;;;;;;4406580;32;20065;-67
2023/05/14 10:59:35;;;;;;;11.80;8.57;;;;;;;;;;4407348;32;20030;-66
2023/05/14 11:02:03;;;;;;;14.35;7.68;;;;;;;;;;4414379;32;20090;-68
2023/05/14 11:04:30;;;;;;;15.27;8.70;;;;;;;;;;4423489;32;20088;-68
2023/05/14 11:06:55;;;;;;;20.62;9.57;;;;;;;;;;4422750;32;20034;-67
2023/05/14 11:09:21;;;;;;;14.23;8.82;;;;;;;;;;4423566;32;20037;-66
2023/05/14 11:11:46;;;;;;;15.05;8.73;;;;;;;;;;4423508;32;20529;-67
2023/05/14 11:14:12;;;;;;;19.08;9.73;;;;;;;;;;4420662;32;20332;-67
2023/05/14 11:16:37;;;;;;;16.83;8.77;;;;;;;;;;4422457;32;20335;-67
2023/05/14 11:19:03;;;;;;;15.63;7.30;;;;;;;;;;4423651;32;20042;-67
2023/05/14 11:21:29;;;;;;;16.45;7.80;;;;;;;;;;4421501;32;20074;-67
2023/05/14 11:23:55;;;;;;;11.60;7.95;;;;;;;;;;4421274;32;20034;-67
2023/05/14 11:26:21;;;;;;;15.73;8.55;;;;;;;;;;4423214;32;20037;-67
2023/05/14 11:28:46;;;;;;;9.38;5.45;;;;;;;;;;4421188;32;20038;-69
2023/05/14 11:31:11;;;;;;;12.23;6.75;;;;;;;;;;4422320;32;20083;-67
2023/05/14 11:33:38;;;;;;;16.27;8.33;;;;;;;;;;4422955;32;20038;-68
2023/05/14 11:36:03;;;;;;;12.48;7.40;;;;;;;;;;4422328;32;20218;-66
2023/05/14 11:38:29;;;;;;;12.65;6.15;;;;;;;;;;4423485;32;20034;-67
2023/05/14 11:40:54;;;;;;;9.67;7.03;;;;;;;;;;4423045;32;20407;-67
2023/05/14 11:43:22;;;;;;;11.65;7.00;;;;;;;;;;4421456;32;20125;-67
2023/05/14 11:45:51;;;;;;;11.90;6.18;;;;;;;;;;4420731;32;20183;-68
2023/05/14 11:48:17;;;;;;;12.65;6.22;;;;;;;;;;4420768;32;20045;-68
2023/05/14 11:50:49;;;;;;;13.85;6.80;;;;;;;;;;4420872;32;20064;-66
2023/05/14 11:53:18;;;;;;;14.30;6.47;;;;;;;;;;4421725;32;20463;-66
2023/05/14 11:55:44;;;;;;;10.65;6.78;;;;;;;;;;4421208;32;20069;-69
2023/05/14 11:58:10;;;;;;;10.85;5.90;;;;;;;;;;4422765;32;20079;-67
2023/05/14 12:00:36;;;;;;;14.07;6.95;;;;;;;;;;4416498;32;20360;-72
2023/05/14 12:03:01;;;;;;;12.63;7.10;;;;;;;;;;4409664;32;20062;-70
2023/05/14 12:05:27;;;;;;;12.95;6.87;;;;;;;;;;4404926;32;20394;-71
2023/05/14 12:07:52;;;;;;;10.07;6.03;;;;;;;;;;4407678;32;20034;-70
2023/05/14 12:10:17;;;;;;;14.50;6.43;;;;;;;;;;4417577;32;20030;-71
2023/05/14 12:12:44;;;;;;;11.75;7.53;;;;;;;;;;4409104;32;20513;-70
2023/05/14 12:15:12;;;;;;;10.32;5.47;;;;;;;;;;4406549;32;20060;-70
2023/05/14 12:17:38;;;;;;;12.43;6.65;;;;;;;;;;4420734;32;20034;-71
2023/05/14 12:20:05;;;;;;;12.37;7.97;;;;;;;;;;4422006;32;20057;-70
2023/05/14 12:22:30;;;;;;;13.45;6.95;;;;;;;;;;4422292;32;20083;-71
2023/05/14 12:24:56;;;;;;;14.38;7.10;;;;;;;;;;4421851;32;20387;-69
2023/05/14 12:27:23;;;;;;;11.27;6.45;;;;;;;;;;4420532;32;20111;-72
2023/05/14 12:29:48;;;;;;;13.48;7.45;;;;;;;;;;4419034;32;20030;-71
2023/05/14 12:32:14;;;;;;;15.73;6.45;;;;;;;;;;4419133;32;20368;-71
2023/05/14 12:34:39;;;;;;;10.45;5.68;;;;;;;;;;4420428;32;20088;-72
2023/05/14 12:37:05;;;;;;;12.48;7.05;;;;;;;;;;4420317;32;20033;-72
2023/05/14 12:39:31;;;;;;;10.52;5.70;;;;;;;;;;4421312;32;20026;-71
2023/05/14 12:41:56;;;;;;;12.35;6.47;;;;;;;;;;4419390;32;20069;-71
2023/05/14 12:44:22;;;;;;;9.80;5.90;;;;;;;;;;4418999;32;20081;-70
2023/05/14 12:46:47;;;;;;;9.27;5.30;;;;;;;;;;4419904;32;20177;-70
2023/05/14 12:49:12;;;;;;;12.27;7.00;;;;;;;;;;4420489;32;20522;-71
2023/05/14 12:51:37;;;;;;;12.10;6.37;;;;;;;;;;4420685;32;20064;-70
2023/05/14 12:54:02;;;;;;;12.37;6.40;;;;;;;;;;4422149;32;20056;-70
2023/05/14 12:56:29;;;;;;;17.90;7.18;;;;;;;;;;4421079;32;20603;-70
2023/05/14 12:58:56;;;;;;;12.45;6.00;;;;;;;;;;4420081;32;20498;-70
2023/05/14 13:01:22;;;;;;;12.82;6.82;;;;;;;;;;4420836;32;20053;-70
2023/05/14 13:03:47;;;;;;;14.52;6.95;;;;;;;;;;4421697;32;20069;-70
2023/05/14 13:06:12;;;;;;;14.07;5.87;;;;;;;;;;4416997;32;20529;-70
2023/05/14 13:08:37;;;;;;;14.68;6.37;;;;;;;;;;4410178;32;20046;-71
2023/05/14 13:11:02;;;;;;;12.40;7.40;;;;;;;;;;4415864;32;20120;-72
2023/05/14 13:13:28;;;;;;;18.02;7.45;;;;;;;;;;4407681;32;20039;-70
2023/05/14 13:15:53;;;;;;;14.80;6.75;;;;;;;;;;4416308;32;20061;-70
2023/05/14 13:18:18;;;;;;;18.58;6.82;;;;;;;;;;4420485;32;20030;-70
2023/05/14 13:20:44;;;;;;;13.02;5.30;;;;;;;;;;4420236;32;20128;-71
2023/05/14 13:23:10;;;;;;;16.52;6.03;;;;;;;;;;4421666;32;20366;-70
2023/05/14 13:25:35;;;;;;;15.32;7.10;;;;;;;;;;4419964;32;20034;-70
2023/05/14 13:28:00;;;;;;;15.18;7.00;;;;;;;;;;4420594;32;20054;-70
2023/05/14 13:30:25;;;;;;;11.90;5.40;;;;;;;;;;4413709;32;20458;-71
2023/05/14 13:32:51;;;;;;;12.00;5.57;;;;;;;;;;4407668;32;20387;-70
2023/05/14 13:35:16;;;;;;;15.15;6.20;;;;;;;;;;4420882;32;20194;-71
2023/05/14 13:37:44;;;;;;;13.60;6.28;;;;;;;;;;4420219;32;20086;-72
2023/05/14 13:40:10;;;;;;;10.48;5.43;;;;;;;;;;4419539;32;20060;-72
2023/05/14 13:42:35;;;;;;;11.80;6.47;;;;;;;;;;4420237;32;20101;-71
2023/05/14 13:45:01;;;;;;;14.75;7.82;;;;;;;;;;4420671;32;20038;-71
2023/05/14 13:47:27;;;;;;;13.93;7.30;;;;;;;;;;4419855;32;20029;-72
2023/05/14 13:49:52;;;;;;;12.55;6.57;;;;;;;;;;4419946;32;20029;-72
2023/05/14 13:52:17;;;;;;;12.55;6.40;;;;;;;;;;4417940;32;20072;-72
2023/05/14 13:54:43;;;;;;;11.80;5.22;;;;;;;;;;4420979;32;20030;-71
2023/05/14 13:57:08;;;;;;;13.50;6.07;;;;;;;;;;4419818;32;20025;-72
2023/05/14 13:59:33;;;;;;;14.67;6.73;;;;;;;;;;4421190;32;20052;-71
2023/05/14 14:01:58;;;;;;;15.07;6.57;;;;;;;;;;4411742;32;20588;-72
2023/05/14 14:04:27;;;;;;;17.33;5.95;;;;;;;;;;4405013;32;20034;-72
2023/05/14 14:06:53;;;;;;;19.35;6.90;;;;;;;;;;4418554;32;20029;-72
2023/05/14 14:09:18;;;;;;;14.43;6.37;;;;;;;;;;4420700;32;20060;-71
2023/05/14 14:11:43;;;;;;;13.27;6.37;;;;;;;;;;4421776;32;20056;-71
2023/05/14 14:14:08;;;;;;;13.30;5.30;;;;;;;;;;4422697;32;20145;-71
2023/05/14 14:16:33;;;;;;;11.07;5.87;;;;;;;;;;4424685;32;20172;-71
2023/05/14 14:18:58;;;;;;;14.23;5.62;;;;;;;;;;4423073;32;20201;-71
2023/05/14 14:21:24;;;;;;;16.37;5.67;;;;;;;;;;4424482;32;20056;-71
2023/05/14 14:23:49;;;;;;;12.13;5.70;;;;;;;;;;4422419;32;20137;-70